JTD525 EKBI-LEPA
Flight info
| Callsign | JTD525 |
|---|---|
| Flight time | N/A |
| Altitude | 39000 |
| Route | MIKRO DCT IPSUB P174 MOXCI DCT EEL DCT NIK DCT KOVIN DCT DUCRA DCT RESMI DCT DEKOD DCT DISAK DCT DIRMO DCT VALKU DCT ATSUP DCT MINSO DCT DEGOL DCT PPG DCT ALBER DCT GIR DCT NENDA DCT KUREG DCT LORES |
| Aircraft | B738/M-SDE2E3FGHIRWXY/LB1 |
Departure
| Time | 2026-04-29 15:15 |
|---|---|
| Airport | Billund Airport (EKBI) |
Arrival
| Time | N/A |
|---|---|
| Airport | Palma de Mallorca Airport (LEPA) |
| Time | Latitude | Longitude | Altitude | Speed | Heading |
|---|---|---|---|---|---|
| 2026-04-29 14:41 | 55.74539 | 9.15078 | 215 ft | 0 kts | 357° |
| 2026-04-29 15:05 | 55.74531 | 9.15079 | 215 ft | 4 kts | 357° |
| 2026-04-29 15:05 | 55.74504 | 9.15081 | 216 ft | 4 kts | 357° |
| 2026-04-29 15:05 | 55.74477 | 9.15083 | 222 ft | 4 kts | 357° |
| 2026-04-29 15:05 | 55.74451 | 9.15085 | 217 ft | 2 kts | 357° |
| 2026-04-29 15:06 | 55.74449 | 9.15085 | 217 ft | 0 kts | 357° |
| 2026-04-29 15:08 | 55.74451 | 9.15081 | 215 ft | 1 kts | 326° |
| 2026-04-29 15:09 | 55.74454 | 9.15029 | 218 ft | 8 kts | 257° |
| 2026-04-29 15:09 | 55.74395 | 9.14979 | 215 ft | 12 kts | 176° |
| 2026-04-29 15:09 | 55.74312 | 9.14988 | 215 ft | 12 kts | 177° |
| 2026-04-29 15:09 | 55.74233 | 9.14996 | 222 ft | 11 kts | 176° |
| 2026-04-29 15:10 | 55.74197 | 9.15085 | 215 ft | 10 kts | 90° |
| 2026-04-29 15:10 | 55.74203 | 9.15247 | 215 ft | 18 kts | 87° |
| 2026-04-29 15:10 | 55.74210 | 9.15492 | 215 ft | 21 kts | 86° |
| 2026-04-29 15:10 | 55.74218 | 9.15749 | 218 ft | 20 kts | 86° |
| 2026-04-29 15:11 | 55.74226 | 9.15989 | 217 ft | 19 kts | 86° |
| 2026-04-29 15:11 | 55.74233 | 9.16211 | 219 ft | 17 kts | 87° |
| 2026-04-29 15:11 | 55.74240 | 9.16442 | 215 ft | 20 kts | 86° |
| 2026-04-29 15:11 | 55.74248 | 9.16695 | 215 ft | 20 kts | 86° |
| 2026-04-29 15:12 | 55.74255 | 9.16936 | 221 ft | 19 kts | 86° |
| 2026-04-29 15:12 | 55.74260 | 9.17091 | 215 ft | 20 kts | 87° |
| 2026-04-29 15:12 | 55.74271 | 9.17437 | 215 ft | 21 kts | 87° |
| 2026-04-29 15:12 | 55.74279 | 9.17688 | 215 ft | 20 kts | 86° |
| 2026-04-29 15:13 | 55.74286 | 9.17919 | 215 ft | 18 kts | 86° |
| 2026-04-29 15:13 | 55.74260 | 9.18108 | 215 ft | 15 kts | 136° |
| 2026-04-29 15:13 | 55.74167 | 9.18148 | 223 ft | 13 kts | 185° |
| 2026-04-29 15:13 | 55.74122 | 9.18034 | 215 ft | 12 kts | 266° |
| 2026-04-29 15:14 | 55.74118 | 9.17882 | 217 ft | 14 kts | 267° |
| 2026-04-29 15:14 | 55.74107 | 9.17518 | 223 ft | 60 kts | 266° |
| 2026-04-29 15:14 | 55.74071 | 9.16379 | 215 ft | 123 kts | 267° |
| 2026-04-29 15:14 | 55.74033 | 9.15208 | 217 ft | 157 kts | 267° |
| 2026-04-29 15:15 | 55.73971 | 9.13188 | 718 ft | 164 kts | 267° |
| 2026-04-29 15:15 | 55.74013 | 9.11227 | 1478 ft | 165 kts | 289° |
| 2026-04-29 15:15 | 55.74714 | 9.09444 | 1783 ft | 186 kts | 311° |
| 2026-04-29 15:15 | 55.75598 | 9.07673 | 2301 ft | 197 kts | 311° |
| 2026-04-29 15:16 | 55.76521 | 9.05797 | 2830 ft | 204 kts | 311° |
| 2026-04-29 15:16 | 55.77465 | 9.03839 | 3252 ft | 213 kts | 305° |
| 2026-04-29 15:16 | 55.77878 | 9.01320 | 3682 ft | 222 kts | 263° |
| 2026-04-29 15:16 | 55.77295 | 8.98726 | 4014 ft | 239 kts | 230° |
| 2026-04-29 15:17 | 55.76013 | 8.96656 | 4297 ft | 259 kts | 217° |
| 2026-04-29 15:17 | 55.74543 | 8.94654 | 4828 ft | 270 kts | 215° |
| 2026-04-29 15:17 | 55.73025 | 8.92624 | 5479 ft | 276 kts | 216° |
| 2026-04-29 15:17 | 55.71482 | 8.90564 | 6197 ft | 280 kts | 216° |
| 2026-04-29 15:18 | 55.69914 | 8.88460 | 6881 ft | 284 kts | 217° |
| 2026-04-29 15:18 | 55.68325 | 8.86319 | 7543 ft | 290 kts | 217° |
| 2026-04-29 15:18 | 55.66709 | 8.84135 | 8220 ft | 295 kts | 217° |
| 2026-04-29 15:18 | 55.65087 | 8.81939 | 8914 ft | 300 kts | 217° |
| 2026-04-29 15:19 | 55.63416 | 8.79677 | 9638 ft | 305 kts | 217° |
| 2026-04-29 15:19 | 55.61712 | 8.77370 | 10350 ft | 311 kts | 217° |
| 2026-04-29 15:19 | 55.59966 | 8.75007 | 10860 ft | 324 kts | 217° |
| 2026-04-29 15:19 | 55.58110 | 8.72497 | 11044 ft | 348 kts | 217° |
| 2026-04-29 15:20 | 55.56141 | 8.69836 | 11433 ft | 362 kts | 217° |
| 2026-04-29 15:20 | 55.54121 | 8.67108 | 12036 ft | 369 kts | 217° |
| 2026-04-29 15:20 | 55.52067 | 8.64338 | 12730 ft | 374 kts | 217° |
| 2026-04-29 15:20 | 55.49989 | 8.61537 | 13437 ft | 379 kts | 217° |
| 2026-04-29 15:21 | 55.47871 | 8.58688 | 14146 ft | 385 kts | 217° |
| 2026-04-29 15:21 | 55.45721 | 8.55799 | 14847 ft | 389 kts | 217° |
| 2026-04-29 15:21 | 55.43553 | 8.52890 | 15544 ft | 394 kts | 217° |
| 2026-04-29 15:21 | 55.41362 | 8.49954 | 16240 ft | 398 kts | 217° |
| 2026-04-29 15:22 | 55.39144 | 8.46986 | 16940 ft | 402 kts | 217° |
| 2026-04-29 15:22 | 55.36933 | 8.44033 | 17624 ft | 406 kts | 217° |
| 2026-04-29 15:22 | 55.34666 | 8.41008 | 18309 ft | 411 kts | 217° |
| 2026-04-29 15:22 | 55.32372 | 8.37953 | 18957 ft | 416 kts | 217° |
| 2026-04-29 15:23 | 55.30057 | 8.34874 | 19555 ft | 419 kts | 217° |
| 2026-04-29 15:23 | 55.27728 | 8.31782 | 20187 ft | 422 kts | 217° |
| 2026-04-29 15:23 | 55.25378 | 8.28665 | 20773 ft | 425 kts | 217° |
| 2026-04-29 15:23 | 55.23017 | 8.25540 | 21427 ft | 426 kts | 217° |
| 2026-04-29 15:24 | 55.20645 | 8.22403 | 22041 ft | 429 kts | 217° |
| 2026-04-29 15:24 | 55.18245 | 8.19236 | 22594 ft | 433 kts | 217° |
| 2026-04-29 15:24 | 55.15828 | 8.16050 | 23143 ft | 437 kts | 217° |
| 2026-04-29 15:24 | 55.13389 | 8.12841 | 23705 ft | 440 kts | 217° |
| 2026-04-29 15:25 | 55.10933 | 8.09613 | 24232 ft | 443 kts | 217° |
| 2026-04-29 15:25 | 55.08460 | 8.06367 | 24686 ft | 446 kts | 217° |
| 2026-04-29 15:25 | 55.05968 | 8.03102 | 25150 ft | 449 kts | 217° |
| 2026-04-29 15:25 | 55.03461 | 7.99825 | 25596 ft | 451 kts | 217° |
| 2026-04-29 15:26 | 55.00845 | 7.96899 | 26009 ft | 455 kts | 207° |
| 2026-04-29 15:26 | 54.97937 | 7.94711 | 26431 ft | 456 kts | 197° |
| 2026-04-29 15:26 | 54.94865 | 7.93351 | 26849 ft | 457 kts | 188° |
| 2026-04-29 15:26 | 54.91732 | 7.92355 | 27266 ft | 459 kts | 187° |
| 2026-04-29 15:27 | 54.88565 | 7.91386 | 27674 ft | 462 kts | 187° |
| 2026-04-29 15:27 | 54.85384 | 7.90393 | 28075 ft | 465 kts | 188° |
| 2026-04-29 15:27 | 54.82193 | 7.89365 | 28459 ft | 468 kts | 188° |
| 2026-04-29 15:27 | 54.78981 | 7.88306 | 28831 ft | 471 kts | 188° |
| 2026-04-29 15:28 | 54.75747 | 7.87227 | 29200 ft | 474 kts | 188° |
| 2026-04-29 15:28 | 54.73596 | 7.86509 | 29453 ft | 476 kts | 188° |
| 2026-04-29 15:28 | 54.69264 | 7.85070 | 29948 ft | 479 kts | 188° |
| 2026-04-29 15:28 | 54.65975 | 7.83983 | 30305 ft | 481 kts | 188° |
| 2026-04-29 15:29 | 54.62680 | 7.82896 | 30626 ft | 484 kts | 188° |
| 2026-04-29 15:29 | 54.56024 | 7.80705 | 31195 ft | 488 kts | 188° |
| 2026-04-29 15:30 | 54.49322 | 7.78503 | 31787 ft | 491 kts | 188° |
| 2026-04-29 15:30 | 54.45961 | 7.77400 | 32139 ft | 491 kts | 187° |
| 2026-04-29 15:30 | 54.42611 | 7.76303 | 32554 ft | 490 kts | 187° |
| 2026-04-29 15:30 | 54.39252 | 7.75205 | 32961 ft | 488 kts | 187° |
| 2026-04-29 15:31 | 54.35929 | 7.74121 | 33341 ft | 487 kts | 187° |
| 2026-04-29 15:31 | 54.32592 | 7.73035 | 33690 ft | 487 kts | 187° |
| 2026-04-29 15:31 | 54.29265 | 7.71953 | 34042 ft | 486 kts | 187° |
| 2026-04-29 15:31 | 54.25987 | 7.70889 | 34413 ft | 485 kts | 187° |
| 2026-04-29 15:32 | 54.22669 | 7.69814 | 34744 ft | 484 kts | 187° |
| 2026-04-29 15:32 | 54.19352 | 7.68741 | 35026 ft | 484 kts | 187° |
| 2026-04-29 15:32 | 54.16038 | 7.67671 | 35281 ft | 485 kts | 187° |
| 2026-04-29 15:32 | 54.12721 | 7.66603 | 35548 ft | 485 kts | 187° |
| 2026-04-29 15:33 | 54.09411 | 7.65538 | 35836 ft | 484 kts | 188° |
| 2026-04-29 15:33 | 54.06100 | 7.64474 | 36112 ft | 484 kts | 188° |
| 2026-04-29 15:33 | 54.02785 | 7.63410 | 36368 ft | 484 kts | 188° |
| 2026-04-29 15:33 | 53.99477 | 7.62350 | 36618 ft | 484 kts | 188° |
| 2026-04-29 15:34 | 53.96172 | 7.61256 | 36881 ft | 484 kts | 191° |
| 2026-04-29 15:34 | 53.92959 | 7.59514 | 37112 ft | 486 kts | 201° |
| 2026-04-29 15:34 | 53.89921 | 7.56987 | 37360 ft | 487 kts | 211° |
| 2026-04-29 15:34 | 53.87137 | 7.53745 | 37613 ft | 486 kts | 217° |
| 2026-04-29 15:35 | 53.84468 | 7.50349 | 37876 ft | 485 kts | 218° |
| 2026-04-29 15:35 | 53.81750 | 7.46857 | 38121 ft | 485 kts | 218° |
| 2026-04-29 15:35 | 53.79095 | 7.43463 | 38361 ft | 484 kts | 218° |
| 2026-04-29 15:35 | 53.76399 | 7.40051 | 38652 ft | 483 kts | 218° |
| 2026-04-29 15:36 | 53.73697 | 7.36661 | 38883 ft | 482 kts | 217° |
| 2026-04-29 15:36 | 53.70995 | 7.33296 | 39131 ft | 481 kts | 217° |
| 2026-04-29 15:36 | 53.68301 | 7.29956 | 39312 ft | 481 kts | 217° |
| 2026-04-29 15:36 | 53.65614 | 7.26634 | 39430 ft | 478 kts | 217° |
| 2026-04-29 15:37 | 53.62928 | 7.23320 | 39427 ft | 478 kts | 217° |
| 2026-04-29 15:37 | 53.57539 | 7.16680 | 39440 ft | 481 kts | 217° |
| 2026-04-29 15:38 | 53.52129 | 7.10033 | 39442 ft | 484 kts | 217° |
| 2026-04-29 15:38 | 53.33016 | 6.86714 | 39440 ft | 490 kts | 217° |
| 2026-04-29 15:39 | 53.15412 | 6.65455 | 39390 ft | 486 kts | 217° |
| 2026-04-29 15:39 | 53.05286 | 6.52271 | 39355 ft | 474 kts | 219° |
| 2026-04-29 15:39 | 52.95058 | 6.38732 | 39328 ft | 467 kts | 219° |
| 2026-04-29 15:40 | 52.74536 | 6.12238 | 39419 ft | 473 kts | 218° |
| 2026-04-29 15:40 | 52.53502 | 5.85401 | 39407 ft | 489 kts | 217° |
| 2026-04-29 15:41 | 52.31899 | 5.58184 | 39315 ft | 486 kts | 217° |
| 2026-04-29 15:41 | 52.10784 | 5.31912 | 39298 ft | 466 kts | 216° |
| 2026-04-29 15:42 | 51.90307 | 5.06742 | 39327 ft | 459 kts | 216° |
| 2026-04-29 15:42 | 51.69747 | 4.81764 | 39330 ft | 471 kts | 215° |
| 2026-04-29 15:43 | 51.53794 | 4.62579 | 39275 ft | 474 kts | 215° |
| 2026-04-29 15:43 | 51.36947 | 4.42483 | 39150 ft | 450 kts | 216° |
| 2026-04-29 15:44 | 51.21555 | 4.24358 | 39378 ft | 455 kts | 216° |
| 2026-04-29 15:44 | 51.15518 | 4.17641 | 39264 ft | 463 kts | 206° |
| 2026-04-29 15:45 | 50.83832 | 3.96858 | 39267 ft | 468 kts | 201° |
| 2026-04-29 15:45 | 50.35664 | 3.65432 | 39120 ft | 464 kts | 202° |
| 2026-04-29 15:46 | 49.88353 | 3.35567 | 39124 ft | 454 kts | 204° |
| 2026-04-29 15:46 | 49.49633 | 3.11290 | 39110 ft | 448 kts | 205° |
| 2026-04-29 15:46 | 49.46873 | 3.09114 | 39105 ft | 444 kts | 216° |
| 2026-04-29 15:47 | 49.32792 | 2.94673 | 39117 ft | 442 kts | 217° |
| 2026-04-29 15:47 | 48.99821 | 2.61523 | 39156 ft | 438 kts | 216° |
| 2026-04-29 15:48 | 48.88162 | 2.49947 | 38960 ft | 413 kts | 216° |
| 2026-04-29 15:48 | 48.75335 | 2.37309 | 39181 ft | 426 kts | 216° |
| 2026-04-29 15:49 | 48.61536 | 2.23731 | 39134 ft | 443 kts | 215° |
| 2026-04-29 15:49 | 48.56198 | 2.19265 | 39064 ft | 427 kts | 204° |
| 2026-04-29 15:50 | 48.36894 | 2.12798 | 39106 ft | 411 kts | 195° |
| 2026-04-29 15:50 | 48.26530 | 2.10333 | 39041 ft | 422 kts | 180° |
| 2026-04-29 15:50 | 48.18656 | 2.12019 | 39069 ft | 434 kts | 175° |
| 2026-04-29 15:51 | 48.12229 | 2.13398 | 39094 ft | 435 kts | 180° |